sensor_id;sensor_type;location;lat;lon;timestamp;pressure;altitude;pressure_sealevel;temperature;humidity
39243;BME280;29823;47.404;8.566;2023-01-27T00:01:04;96492.22;;;0.98;100.00
39243;BME280;29823;47.404;8.566;2023-01-27T00:03:32;96489.09;;;0.94;100.00
39243;BME280;29823;47.404;8.566;2023-01-27T00:06:00;96489.19;;;1.09;100.00
39243;BME280;29823;47.404;8.566;2023-01-27T00:08:30;96493.69;;;1.00;100.00
39243;BME280;29823;47.404;8.566;2023-01-27T00:10:58;96487.72;;;1.06;100.00
39243;BME280;29823;47.404;8.566;2023-01-27T00:13:40;96489.03;;;1.10;100.00
39243;BME280;29823;47.404;8.566;2023-01-27T00:16:09;96496.91;;;1.10;100.00
39243;BME280;29823;47.404;8.566;2023-01-27T00:18:37;96488.44;;;0.92;100.00
39243;BME280;29823;47.404;8.566;2023-01-27T00:21:05;96487.41;;;1.01;100.00
39243;BME280;29823;47.404;8.566;2023-01-27T00:23:50;96486.59;;;1.01;100.00
39243;BME280;29823;47.404;8.566;2023-01-27T00:26:35;96490.06;;;0.93;100.00
39243;BME280;29823;47.404;8.566;2023-01-27T00:29:03;96482.25;;;0.85;100.00
39243;BME280;29823;47.404;8.566;2023-01-27T00:31:32;96477.59;;;0.95;100.00
39243;BME280;29823;47.404;8.566;2023-01-27T00:34:17;96483.78;;;1.02;100.00
39243;BME280;29823;47.404;8.566;2023-01-27T00:36:45;96468.13;;;0.78;100.00
39243;BME280;29823;47.404;8.566;2023-01-27T00:39:13;96477.59;;;0.95;100.00
39243;BME280;29823;47.404;8.566;2023-01-27T00:41:41;96475.72;;;1.04;100.00
39243;BME280;29823;47.404;8.566;2023-01-27T00:44:09;96475.88;;;1.02;100.00
39243;BME280;29823;47.404;8.566;2023-01-27T00:46:40;96475.25;;;1.00;100.00
39243;BME280;29823;47.404;8.566;2023-01-27T00:49:09;96477.91;;;0.92;100.00
39243;BME280;29823;47.404;8.566;2023-01-27T00:51:39;96477.13;;;0.92;100.00
39243;BME280;29823;47.404;8.566;2023-01-27T00:54:07;96462.44;;;0.97;100.00
39243;BME280;29823;47.404;8.566;2023-01-27T00:56:35;96456.38;;;0.89;100.00
39243;BME280;29823;47.404;8.566;2023-01-27T00:59:03;96475.28;;;0.92;100.00
39243;BME280;29823;47.404;8.566;2023-01-27T01:01:31;96468.09;;;0.86;100.00
39243;BME280;29823;47.404;8.566;2023-01-27T01:04:01;96461.78;;;0.95;100.00
39243;BME280;29823;47.404;8.566;2023-01-27T01:06:29;96474.75;;;0.97;100.00
39243;BME280;29823;47.404;8.566;2023-01-27T01:08:57;96463.22;;;0.75;100.00
39243;BME280;29823;47.404;8.566;2023-01-27T01:11:25;96460.91;;;0.72;100.00
39243;BME280;29823;47.404;8.566;2023-01-27T01:13:53;96469.47;;;0.74;100.00
39243;BME280;29823;47.404;8.566;2023-01-27T01:16:23;96479.78;;;0.84;100.00
39243;BME280;29823;47.404;8.566;2023-01-27T01:18:51;96475.03;;;0.79;100.00
39243;BME280;29823;47.404;8.566;2023-01-27T01:21:20;96473.13;;;0.96;100.00
39243;BME280;29823;47.404;8.566;2023-01-27T01:23:48;96479.16;;;1.04;100.00
39243;BME280;29823;47.404;8.566;2023-01-27T01:26:17;96483.66;;;0.96;100.00
39243;BME280;29823;47.404;8.566;2023-01-27T01:28:45;96475.13;;;0.94;100.00
39243;BME280;29823;47.404;8.566;2023-01-27T01:31:16;96477.22;;;0.98;100.00
39243;BME280;29823;47.404;8.566;2023-01-27T01:33:44;96466.84;;;0.97;100.00
39243;BME280;29823;47.404;8.566;2023-01-27T01:36:14;96476.06;;;1.01;100.00
39243;BME280;29823;47.404;8.566;2023-01-27T01:38:44;96469.72;;;0.87;100.00
39243;BME280;29823;47.404;8.566;2023-01-27T01:41:15;96465.75;;;0.91;100.00
39243;BME280;29823;47.404;8.566;2023-01-27T01:43:43;96460.34;;;0.85;100.00
39243;BME280;29823;47.404;8.566;2023-01-27T01:46:11;96455.22;;;0.91;100.00
39243;BME280;29823;47.404;8.566;2023-01-27T01:48:40;96448.66;;;0.87;100.00
39243;BME280;29823;47.404;8.566;2023-01-27T01:51:12;96456.69;;;0.94;100.00
39243;BME280;29823;47.404;8.566;2023-01-27T01:53:44;96431.31;;;0.78;100.00
39243;BME280;29823;47.404;8.566;2023-01-27T01:56:17;96454.91;;;0.94;100.00
39243;BME280;29823;47.404;8.566;2023-01-27T01:58:47;96445.25;;;0.79;100.00
39243;BME280;29823;47.404;8.566;2023-01-27T02:01:16;96447.63;;;0.96;100.00
39243;BME280;29823;47.404;8.566;2023-01-27T02:03:50;96443.66;;;1.00;100.00
39243;BME280;29823;47.404;8.566;2023-01-27T02:06:20;96455.81;;;1.01;100.00
39243;BME280;29823;47.404;8.566;2023-01-27T02:08:50;96445.63;;;0.98;100.00
39243;BME280;29823;47.404;8.566;2023-01-27T02:11:18;96438.75;;;0.97;100.00
39243;BME280;29823;47.404;8.566;2023-01-27T02:13:46;96440.72;;;0.95;100.00
39243;BME280;29823;47.404;8.566;2023-01-27T02:16:14;96433.47;;;0.97;100.00
39243;BME280;29823;47.404;8.566;2023-01-27T02:18:42;96439.09;;;0.94;100.00
39243;BME280;29823;47.404;8.566;2023-01-27T02:21:09;96437.44;;;0.93;100.00
39243;BME280;29823;47.404;8.566;2023-01-27T02:23:57;96436.50;;;0.86;100.00
39243;BME280;29823;47.404;8.566;2023-01-27T02:26:29;96436.16;;;0.89;100.00
39243;BME280;29823;47.404;8.566;2023-01-27T02:29:02;96429.25;;;0.88;100.00
39243;BME280;29823;47.404;8.566;2023-01-27T02:31:30;96442.50;;;1.03;100.00
39243;BME280;29823;47.404;8.566;2023-01-27T02:34:01;96428.59;;;0.86;100.00
39243;BME280;29823;47.404;8.566;2023-01-27T02:36:33;96432.19;;;0.93;100.00
39243;BME280;29823;47.404;8.566;2023-01-27T02:39:04;96437.41;;;1.01;100.00
39243;BME280;29823;47.404;8.566;2023-01-27T02:41:37;96427.75;;;0.94;100.00
39243;BME280;29823;47.404;8.566;2023-01-27T02:44:07;96435.16;;;0.90;100.00
39243;BME280;29823;47.404;8.566;2023-01-27T02:46:36;96435.09;;;0.98;100.00
39243;BME280;29823;47.404;8.566;2023-01-27T02:49:04;96431.72;;;0.90;100.00
39243;BME280;29823;47.404;8.566;2023-01-27T02:51:32;96437.56;;;1.00;100.00
39243;BME280;29823;47.404;8.566;2023-01-27T02:54:00;96424.13;;;0.95;100.00
39243;BME280;29823;47.404;8.566;2023-01-27T02:56:27;96429.53;;;0.93;100.00
39243;BME280;29823;47.404;8.566;2023-01-27T02:58:57;96431.13;;;1.02;100.00
39243;BME280;29823;47.404;8.566;2023-01-27T03:01:25;96430.81;;;1.05;100.00
39243;BME280;29823;47.404;8.566;2023-01-27T03:03:52;96422.59;;;1.00;100.00
39243;BME280;29823;47.404;8.566;2023-01-27T03:06:20;96432.38;;;0.92;100.00
39243;BME280;29823;47.404;8.566;2023-01-27T03:08:48;96425.41;;;0.99;100.00
39243;BME280;29823;47.404;8.566;2023-01-27T03:11:16;96422.59;;;1.00;100.00
39243;BME280;29823;47.404;8.566;2023-01-27T03:14:07;96422.31;;;0.95;100.00
39243;BME280;29823;47.404;8.566;2023-01-27T03:16:36;96412.78;;;0.94;100.00
39243;BME280;29823;47.404;8.566;2023-01-27T03:19:21;96420.38;;;1.12;100.00
39243;BME280;29823;47.404;8.566;2023-01-27T03:21:48;96412.38;;;1.05;100.00
39243;BME280;29823;47.404;8.566;2023-01-27T03:24:18;96414.75;;;0.92;100.00
39243;BME280;29823;47.404;8.566;2023-01-27T03:26:47;96422.03;;;0.82;100.00
39243;BME280;29823;47.404;8.566;2023-01-27T03:29:16;96420.19;;;0.91;100.00
39243;BME280;29823;47.404;8.566;2023-01-27T03:32:02;96415.00;;;1.05;100.00
39243;BME280;29823;47.404;8.566;2023-01-27T03:34:30;96415.31;;;1.10;100.00
39243;BME280;29823;47.404;8.566;2023-01-27T03:36:57;96419.31;;;0.98;100.00
39243;BME280;29823;47.404;8.566;2023-01-27T03:39:42;96406.81;;;1.00;100.00
39243;BME280;29823;47.404;8.566;2023-01-27T03:42:28;96410.31;;;0.93;100.00
39243;BME280;29823;47.404;8.566;2023-01-27T03:45:14;96408.88;;;0.82;100.00
39243;BME280;29823;47.404;8.566;2023-01-27T03:47:59;96406.25;;;0.82;100.00
39243;BME280;29823;47.404;8.566;2023-01-27T03:50:27;96405.03;;;0.70;100.00
39243;BME280;29823;47.404;8.566;2023-01-27T03:53:03;96403.03;;;0.72;100.00
39243;BME280;29823;47.404;8.566;2023-01-27T03:55:33;96412.59;;;0.65;100.00
39243;BME280;29823;47.404;8.566;2023-01-27T03:58:02;96406.88;;;0.62;100.00
39243;BME280;29823;47.404;8.566;2023-01-27T04:00:41;96402.00;;;0.51;100.00
39243;BME280;29823;47.404;8.566;2023-01-27T04:03:09;96403.94;;;0.57;100.00
39243;BME280;29823;47.404;8.566;2023-01-27T04:05:54;96402.16;;;0.57;100.00
39243;BME280;29823;47.404;8.566;2023-01-27T04:08:41;96409.97;;;0.65;100.00
39243;BME280;29823;47.404;8.566;2023-01-27T04:11:09;96411.13;;;0.71;100.00
39243;BME280;29823;47.404;8.566;2023-01-27T04:13:59;96405.00;;;0.78;100.00
39243;BME280;29823;47.404;8.566;2023-01-27T04:16:29;96407.94;;;0.75;100.00
39243;BME280;29823;47.404;8.566;2023-01-27T04:18:57;96412.88;;;0.78;100.00
39243;BME280;29823;47.404;8.566;2023-01-27T04:21:25;96422.25;;;0.81;100.00
39243;BME280;29823;47.404;8.566;2023-01-27T04:23:53;96422.50;;;0.63;100.00
39243;BME280;29823;47.404;8.566;2023-01-27T04:26:22;96426.06;;;0.70;100.00
39243;BME280;29823;47.404;8.566;2023-01-27T04:28:50;96421.50;;;0.64;100.00
39243;BME280;29823;47.404;8.566;2023-01-27T04:31:18;96428.94;;;0.83;100.00
39243;BME280;29823;47.404;8.566;2023-01-27T04:33:47;96417.66;;;0.75;100.00
39243;BME280;29823;47.404;8.566;2023-01-27T04:36:15;96415.53;;;0.70;100.00
39243;BME280;29823;47.404;8.566;2023-01-27T04:38:43;96422.41;;;0.79;100.00
39243;BME280;29823;47.404;8.566;2023-01-27T04:41:11;96412.66;;;0.57;100.00
39243;BME280;29823;47.404;8.566;2023-01-27T04:43:38;96419.69;;;0.65;100.00
39243;BME280;29823;47.404;8.566;2023-01-27T04:46:06;96417.25;;;0.55;100.00
39243;BME280;29823;47.404;8.566;2023-01-27T04:48:35;96398.00;;;0.63;100.00
39243;BME280;29823;47.404;8.566;2023-01-27T04:51:04;96396.34;;;0.62;100.00
39243;BME280;29823;47.404;8.566;2023-01-27T04:53:32;96403.63;;;0.60;100.00
39243;BME280;29823;47.404;8.566;2023-01-27T04:56:02;96399.63;;;0.64;100.00
39243;BME280;29823;47.404;8.566;2023-01-27T04:58:30;96407.09;;;0.52;100.00
39243;BME280;29823;47.404;8.566;2023-01-27T05:00:58;96402.44;;;0.62;100.00
39243;BME280;29823;47.404;8.566;2023-01-27T05:03:26;96411.63;;;0.66;100.00
39243;BME280;29823;47.404;8.566;2023-01-27T05:05:54;96411.91;;;0.71;100.00
39243;BME280;29823;47.404;8.566;2023-01-27T05:08:23;96407.94;;;0.75;100.00
39243;BME280;29823;47.404;8.566;2023-01-27T05:10:51;96405.03;;;0.70;100.00
39243;BME280;29823;47.404;8.566;2023-01-27T05:13:18;96414.53;;;0.79;100.00
39243;BME280;29823;47.404;8.566;2023-01-27T05:15:46;96413.06;;;0.77;100.00
39243;BME280;29823;47.404;8.566;2023-01-27T05:18:14;96411.22;;;0.77;100.00
39243;BME280;29823;47.404;8.566;2023-01-27T05:20:42;96403.72;;;0.66;100.00
39243;BME280;29823;47.404;8.566;2023-01-27T05:23:10;96405.28;;;0.53;100.00
39243;BME280;29823;47.404;8.566;2023-01-27T05:25:56;96407.03;;;0.68;100.00
39243;BME280;29823;47.404;8.566;2023-01-27T05:28:24;96410.81;;;0.66;100.00
39243;BME280;29823;47.404;8.566;2023-01-27T05:31:00;96409.94;;;0.73;100.00
39243;BME280;29823;47.404;8.566;2023-01-27T05:33:28;96410.66;;;0.67;100.00
39243;BME280;29823;47.404;8.566;2023-01-27T05:36:00;96409.81;;;0.67;100.00
39243;BME280;29823;47.404;8.566;2023-01-27T05:38:28;96415.91;;;0.67;100.00
39243;BME280;29823;47.404;8.566;2023-01-27T05:40:59;96414.47;;;0.57;100.00
39243;BME280;29823;47.404;8.566;2023-01-27T05:43:28;96418.81;;;0.72;100.00
39243;BME280;29823;47.404;8.566;2023-01-27T05:46:01;96415.53;;;0.70;100.00
39243;BME280;29823;47.404;8.566;2023-01-27T05:48:30;96415.31;;;0.57;100.00
39243;BME280;29823;47.404;8.566;2023-01-27T05:50:58;96419.41;;;0.60;100.00
39243;BME280;29823;47.404;8.566;2023-01-27T05:53:26;96424.28;;;0.63;100.00
39243;BME280;29823;47.404;8.566;2023-01-27T05:55:53;96431.78;;;0.51;100.00
39243;BME280;29823;47.404;8.566;2023-01-27T05:58:23;96433.31;;;0.38;100.00
39243;BME280;29823;47.404;8.566;2023-01-27T06:00:51;96430.16;;;0.42;100.00
39243;BME280;29823;47.404;8.566;2023-01-27T06:03:20;96433.72;;;0.49;100.00
39243;BME280;29823;47.404;8.566;2023-01-27T06:05:52;96435.25;;;0.44;100.00
39243;BME280;29823;47.404;8.566;2023-01-27T06:08:21;96431.16;;;0.41;100.00
39243;BME280;29823;47.404;8.566;2023-01-27T06:10:49;96428.94;;;0.53;100.00
39243;BME280;29823;47.404;8.566;2023-01-27T06:13:17;96425.53;;;0.44;100.00
39243;BME280;29823;47.404;8.566;2023-01-27T06:15:47;96423.94;;;0.35;100.00
39243;BME280;29823;47.404;8.566;2023-01-27T06:18:17;96435.44;;;0.34;100.00
39243;BME280;29823;47.404;8.566;2023-01-27T06:20:45;96428.53;;;0.33;100.00
39243;BME280;29823;47.404;8.566;2023-01-27T06:23:16;96436.06;;;0.44;100.00
39243;BME280;29823;47.404;8.566;2023-01-27T06:25:46;96438.09;;;0.26;100.00
39243;BME280;29823;47.404;8.566;2023-01-27T06:28:15;96443.16;;;0.36;100.00
39243;BME280;29823;47.404;8.566;2023-01-27T06:31:05;96444.09;;;0.43;100.00
39243;BME280;29823;47.404;8.566;2023-01-27T06:33:33;96444.19;;;0.27;100.00
39243;BME280;29823;47.404;8.566;2023-01-27T06:36:02;96446.00;;;0.18;100.00
39243;BME280;29823;47.404;8.566;2023-01-27T06:38:30;96448.84;;;0.17;100.00
39243;BME280;29823;47.404;8.566;2023-01-27T06:40:59;96449.66;;;0.09;100.00
39243;BME280;29823;47.404;8.566;2023-01-27T06:43:27;96451.78;;;0.14;100.00
39243;BME280;29823;47.404;8.566;2023-01-27T06:45:55;96459.00;;;0.20;100.00
39243;BME280;29823;47.404;8.566;2023-01-27T06:48:25;96450.25;;;0.27;100.00
39243;BME280;29823;47.404;8.566;2023-01-27T06:50:55;96450.09;;;0.21;100.00
39243;BME280;29823;47.404;8.566;2023-01-27T06:53:23;96475.59;;;0.12;100.00
39243;BME280;29823;47.404;8.566;2023-01-27T06:55:54;96480.38;;;0.17;100.00
39243;BME280;29823;47.404;8.566;2023-01-27T06:58:22;96478.59;;;0.01;100.00
39243;BME280;29823;47.404;8.566;2023-01-27T07:00:50;96483.16;;;0.07;100.00
39243;BME280;29823;47.404;8.566;2023-01-27T07:03:18;96475.59;;;0.20;100.00
39243;BME280;29823;47.404;8.566;2023-01-27T07:05:48;96486.75;;;0.22;100.00
39243;BME280;29823;47.404;8.566;2023-01-27T07:08:16;96491.38;;;0.20;100.00
39243;BME280;29823;47.404;8.566;2023-01-27T07:10:43;96494.31;;;0.25;100.00
39243;BME280;29823;47.404;8.566;2023-01-27T07:13:12;96494.13;;;0.35;100.00
39243;BME280;29823;47.404;8.566;2023-01-27T07:15:41;96490.38;;;0.21;100.00
39243;BME280;29823;47.404;8.566;2023-01-27T07:18:09;96494.94;;;0.27;100.00
39243;BME280;29823;47.404;8.566;2023-01-27T07:20:37;96497.59;;;0.27;100.00
39243;BME280;29823;47.404;8.566;2023-01-27T07:23:07;96495.25;;;0.40;100.00
39243;BME280;29823;47.404;8.566;2023-01-27T07:25:35;96495.22;;;0.48;100.00
39243;BME280;29823;47.404;8.566;2023-01-27T07:28:05;96496.81;;;0.11;100.00
39243;BME280;29823;47.404;8.566;2023-01-27T07:30:33;96498.59;;;0.18;100.00
39243;BME280;29823;47.404;8.566;2023-01-27T07:33:04;96496.59;;;0.28;100.00
39243;BME280;29823;47.404;8.566;2023-01-27T07:35:32;96508.09;;;0.27;100.00
39243;BME280;29823;47.404;8.566;2023-01-27T07:38:00;96508.75;;;0.29;100.00
39243;BME280;29823;47.404;8.566;2023-01-27T07:40:30;96509.88;;;0.35;100.00
39243;BME280;29823;47.404;8.566;2023-01-27T07:42:59;96511.03;;;0.32;100.00
39243;BME280;29823;47.404;8.566;2023-01-27T07:45:27;96507.09;;;0.36;100.00
39243;BME280;29823;47.404;8.566;2023-01-27T07:47:59;96492.16;;;0.21;100.00
39243;BME280;29823;47.404;8.566;2023-01-27T07:50:27;96503.94;;;0.41;100.00
39243;BME280;29823;47.404;8.566;2023-01-27T07:52:57;96483.59;;;0.35;100.00
39243;BME280;29823;47.404;8.566;2023-01-27T07:55:26;96505.13;;;0.38;100.00
39243;BME280;29823;47.404;8.566;2023-01-27T07:57:55;96514.94;;;0.44;100.00
39243;BME280;29823;47.404;8.566;2023-01-27T08:00:23;96507.09;;;0.36;100.00
39243;BME280;29823;47.404;8.566;2023-01-27T08:02:52;96504.63;;;0.35;100.00
39243;BME280;29823;47.404;8.566;2023-01-27T08:05:21;96515.97;;;0.35;100.00
39243;BME280;29823;47.404;8.566;2023-01-27T08:07:50;96517.09;;;0.49;100.00
39243;BME280;29823;47.404;8.566;2023-01-27T08:10:18;96514.16;;;0.44;100.00
39243;BME280;29823;47.404;8.566;2023-01-27T08:12:46;96514.31;;;0.42;100.00
39243;BME280;29823;47.404;8.566;2023-01-27T08:15:15;96512.47;;;0.43;100.00
39243;BME280;29823;47.404;8.566;2023-01-27T08:17:52;96522.19;;;0.42;100.00
39243;BME280;29823;47.404;8.566;2023-01-27T08:20:20;96516.47;;;0.39;100.00
39243;BME280;29823;47.404;8.566;2023-01-27T08:22:48;96526.50;;;0.35;100.00
39243;BME280;29823;47.404;8.566;2023-01-27T08:25:16;96515.31;;;0.33;100.00
39243;BME280;29823;47.404;8.566;2023-01-27T08:27:44;96526.19;;;0.22;100.00
39243;BME280;29823;47.404;8.566;2023-01-27T08:30:12;96525.50;;;0.28;100.00
39243;BME280;29823;47.404;8.566;2023-01-27T08:32:42;96526.50;;;0.35;100.00
39243;BME280;29823;47.404;8.566;2023-01-27T08:35:10;96527.47;;;0.34;100.00
39243;BME280;29823;47.404;8.566;2023-01-27T08:37:37;96500.88;;;0.21;100.00
39243;BME280;29823;47.404;8.566;2023-01-27T08:40:06;96540.75;;;0.49;100.00
39243;BME280;29823;47.404;8.566;2023-01-27T08:42:34;96540.25;;;0.53;100.00
39243;BME280;29823;47.404;8.566;2023-01-27T08:45:03;96540.72;;;0.65;100.00
39243;BME280;29823;47.404;8.566;2023-01-27T08:47:31;96534.28;;;0.67;100.00
39243;BME280;29823;47.404;8.566;2023-01-27T08:50:01;96536.59;;;0.62;100.00
39243;BME280;29823;47.404;8.566;2023-01-27T08:52:28;96537.81;;;0.44;100.00
39243;BME280;29823;47.404;8.566;2023-01-27T08:54:57;96530.38;;;0.55;100.00
39243;BME280;29823;47.404;8.566;2023-01-27T08:57:25;96545.97;;;0.57;100.00
39243;BME280;29823;47.404;8.566;2023-01-27T08:59:52;96540.53;;;0.66;100.00
39243;BME280;29823;47.404;8.566;2023-01-27T09:02:20;96548.03;;;0.77;100.00
39243;BME280;29823;47.404;8.566;2023-01-27T09:04:50;96535.72;;;0.70;100.00
39243;BME280;29823;47.404;8.566;2023-01-27T09:07:19;96540.66;;;0.73;100.00
39243;BME280;29823;47.404;8.566;2023-01-27T09:09:47;96543.63;;;0.78;100.00
39243;BME280;29823;47.404;8.566;2023-01-27T09:12:21;96539.97;;;0.79;100.00
39243;BME280;29823;47.404;8.566;2023-01-27T09:14:49;96553.81;;;0.73;100.00
39243;BME280;29823;47.404;8.566;2023-01-27T09:17:17;96551.03;;;0.74;100.00
39243;BME280;29823;47.404;8.566;2023-01-27T09:19:45;96549.88;;;0.69;100.00
39243;BME280;29823;47.404;8.566;2023-01-27T09:22:13;96551.41;;;0.55;100.00
39243;BME280;29823;47.404;8.566;2023-01-27T09:24:42;96549.44;;;0.49;100.00
39243;BME280;29823;47.404;8.566;2023-01-27T09:27:09;96547.13;;;0.54;100.00
39243;BME280;29823;47.404;8.566;2023-01-27T09:29:38;96551.41;;;0.55;100.00
39243;BME280;29823;47.404;8.566;2023-01-27T09:32:06;96554.34;;;0.68;100.00
39243;BME280;29823;47.404;8.566;2023-01-27T09:34:37;96559.13;;;0.65;100.00
39243;BME280;29823;47.404;8.566;2023-01-27T09:37:09;96565.50;;;0.70;100.00
39243;BME280;29823;47.404;8.566;2023-01-27T09:39:40;96570.44;;;0.73;100.00
39243;BME280;29823;47.404;8.566;2023-01-27T09:42:23;96558.94;;;0.74;100.00
39243;BME280;29823;47.404;8.566;2023-01-27T09:45:08;96563.50;;;0.80;100.00
39243;BME280;29823;47.404;8.566;2023-01-27T09:47:50;96555.66;;;0.56;100.00
39243;BME280;29823;47.404;8.566;2023-01-27T09:50:36;96559.66;;;0.52;100.00
39243;BME280;29823;47.404;8.566;2023-01-27T09:56:10;96535.00;;;0.45;100.00
39243;BME280;29823;47.404;8.566;2023-01-27T09:58:54;96558.59;;;0.69;100.00
39243;BME280;29823;47.404;8.566;2023-01-27T10:01:32;96553.97;;;0.79;100.00
39243;BME280;29823;47.404;8.566;2023-01-27T10:10:13;96543.41;;;0.87;100.00
39243;BME280;29823;47.404;8.566;2023-01-27T10:12:57;96548.59;;;1.03;100.00
39243;BME280;29823;47.404;8.566;2023-01-27T10:15:35;96547.03;;;0.86;100.00
39243;BME280;29823;47.404;8.566;2023-01-27T10:18:17;96546.88;;;0.88;100.00
39243;BME280;29823;47.404;8.566;2023-01-27T10:20:55;96548.19;;;0.92;100.00
39243;BME280;29823;47.404;8.566;2023-01-27T10:23:33;96549.91;;;0.99;100.00
39243;BME280;29823;47.404;8.566;2023-01-27T10:26:17;96517.25;;;0.86;100.00
39243;BME280;29823;47.404;8.566;2023-01-27T10:28:49;96543.34;;;1.03;100.00
39243;BME280;29823;47.404;8.566;2023-01-27T10:31:24;96548.03;;;1.16;100.00
39243;BME280;29823;47.404;8.566;2023-01-27T10:33:54;96544.31;;;1.10;100.00
39243;BME280;29823;47.404;8.566;2023-01-27T10:36:26;96551.53;;;1.08;100.00
39243;BME280;29823;47.404;8.566;2023-01-27T10:39:05;96541.38;;;1.05;100.00
39243;BME280;29823;47.404;8.566;2023-01-27T10:41:42;96539.69;;;1.04;100.00
39243;BME280;29823;47.404;8.566;2023-01-27T10:44:30;96551.06;;;1.05;100.00
39243;BME280;29823;47.404;8.566;2023-01-27T10:47:08;96547.91;;;1.09;100.00
39243;BME280;29823;47.404;8.566;2023-01-27T10:49:40;96554.44;;;1.21;100.00
39243;BME280;29823;47.404;8.566;2023-01-27T10:52:14;96555.03;;;1.01;100.00
39243;BME280;29823;47.404;8.566;2023-01-27T10:54:46;96541.91;;;1.23;100.00
39243;BME280;29823;47.404;8.566;2023-01-27T10:57:20;96549.59;;;1.33;100.00
39243;BME280;29823;47.404;8.566;2023-01-27T10:59:55;96550.28;;;1.27;100.00
39243;BME280;29823;47.404;8.566;2023-01-27T11:02:55;96543.22;;;1.27;100.00
39243;BME280;29823;47.404;8.566;2023-01-27T11:05:29;96551.97;;;1.20;100.00
39243;BME280;29823;47.404;8.566;2023-01-27T11:08:01;96562.44;;;1.05;100.00
39243;BME280;29823;47.404;8.566;2023-01-27T11:10:35;96555.41;;;1.20;100.00
39243;BME280;29823;47.404;8.566;2023-01-27T11:13:07;96549.91;;;0.99;100.00
39243;BME280;29823;47.404;8.566;2023-01-27T11:15:37;96554.53;;;1.05;100.00
39243;BME280;29823;47.404;8.566;2023-01-27T11:18:11;96562.69;;;1.18;100.00
39243;BME280;29823;47.404;8.566;2023-01-27T11:20:43;96567.53;;;0.99;100.00
39243;BME280;29823;47.404;8.566;2023-01-27T11:23:16;96556.09;;;1.14;100.00
39243;BME280;29823;47.404;8.566;2023-01-27T11:25:46;96547.19;;;1.23;100.00
39243;BME280;29823;47.404;8.566;2023-01-27T11:28:27;96551.72;;;1.37;100.00
39243;BME280;29823;47.404;8.566;2023-01-27T11:31:15;96547.69;;;1.49;100.00
39243;BME280;29823;47.404;8.566;2023-01-27T11:33:54;96544.31;;;1.10;100.00
39243;BME280;29823;47.404;8.566;2023-01-27T11:36:24;96554.47;;;1.13;100.00
39243;BME280;29823;47.404;8.566;2023-01-27T11:38:54;96531.41;;;1.15;100.00
39243;BME280;29823;47.404;8.566;2023-01-27T11:41:23;96539.63;;;1.20;100.00
39243;BME280;29823;47.404;8.566;2023-01-27T11:43:52;96538.75;;;1.28;100.00
39243;BME280;29823;47.404;8.566;2023-01-27T11:46:22;96537.78;;;1.51;100.00
39243;BME280;29823;47.404;8.566;2023-01-27T11:48:55;96537.66;;;1.45;100.00
39243;BME280;29823;47.404;8.566;2023-01-27T11:51:25;96533.28;;;1.37;100.00
39243;BME280;29823;47.404;8.566;2023-01-27T11:54:02;96529.00;;;1.36;100.00
39243;BME280;29823;47.404;8.566;2023-01-27T11:56:35;96543.75;;;1.45;100.00
39243;BME280;29823;47.404;8.566;2023-01-27T11:59:05;96530.38;;;1.24;100.00
39243;BME280;29823;47.404;8.566;2023-01-27T12:01:42;96549.72;;;1.39;100.00
39243;BME280;29823;47.404;8.566;2023-01-27T12:04:18;96541.66;;;1.41;100.00
39243;BME280;29823;47.404;8.566;2023-01-27T12:06:52;96537.78;;;1.51;100.00
39243;BME280;29823;47.404;8.566;2023-01-27T12:09:32;96537.44;;;1.54;100.00
39243;BME280;29823;47.404;8.566;2023-01-27T12:12:19;96539.31;;;1.46;100.00
39243;BME280;29823;47.404;8.566;2023-01-27T12:14:47;96541.81;;;1.39;100.00
39243;BME280;29823;47.404;8.566;2023-01-27T12:17:22;96541.81;;;1.39;100.00
39243;BME280;29823;47.404;8.566;2023-01-27T12:19:53;96535.19;;;1.21;100.00
39243;BME280;29823;47.404;8.566;2023-01-27T12:22:25;96529.59;;;1.24;100.00
39243;BME280;29823;47.404;8.566;2023-01-27T12:24:57;96524.31;;;1.24;100.00
39243;BME280;29823;47.404;8.566;2023-01-27T12:27:33;96528.69;;;1.31;100.00
39243;BME280;29823;47.404;8.566;2023-01-27T12:30:05;96533.38;;;1.21;100.00
39243;BME280;29823;47.404;8.566;2023-01-27T12:32:39;96522.09;;;1.35;100.00
39243;BME280;29823;47.404;8.566;2023-01-27T12:35:18;96524.03;;;1.41;100.00
39243;BME280;29823;47.404;8.566;2023-01-27T12:37:48;96522.88;;;1.13;100.00
39243;BME280;29823;47.404;8.566;2023-01-27T12:40:23;96523.34;;;1.17;100.00
39243;BME280;29823;47.404;8.566;2023-01-27T12:43:06;96515.28;;;1.18;100.00
39243;BME280;29823;47.404;8.566;2023-01-27T12:45:37;96515.34;;;1.10;100.00
39243;BME280;29823;47.404;8.566;2023-01-27T12:48:19;96514.94;;;1.21;100.00
39243;BME280;29823;47.404;8.566;2023-01-27T12:50:55;96525.13;;;1.24;100.00
39243;BME280;29823;47.404;8.566;2023-01-27T12:53:30;96520.16;;;0.99;100.00
39243;BME280;29823;47.404;8.566;2023-01-27T12:56:00;96520.22;;;1.21;100.00
39243;BME280;29823;47.404;8.566;2023-01-27T12:58:34;96519.78;;;1.10;100.00
39243;BME280;29823;47.404;8.566;2023-01-27T13:01:03;96525.81;;;1.18;100.00
39243;BME280;29823;47.404;8.566;2023-01-27T13:03:37;96515.03;;;1.05;100.00
39243;BME280;29823;47.404;8.566;2023-01-27T13:06:09;96513.66;;;1.17;100.00
39243;BME280;29823;47.404;8.566;2023-01-27T13:08:42;96525.56;;;1.05;100.00
39243;BME280;29823;47.404;8.566;2023-01-27T13:11:10;96524.59;;;0.98;100.00
39243;BME280;29823;47.404;8.566;2023-01-27T13:13:47;96529.16;;;1.12;100.00
39243;BME280;29823;47.404;8.566;2023-01-27T13:16:17;96531.81;;;1.04;100.00
39243;BME280;29823;47.404;8.566;2023-01-27T13:18:52;96535.28;;;1.05;100.00
39243;BME280;29823;47.404;8.566;2023-01-27T13:21:24;96535.75;;;1.08;100.00
39243;BME280;29823;47.404;8.566;2023-01-27T13:23:54;96523.31;;;0.94;100.00
39243;BME280;29823;47.404;8.566;2023-01-27T13:26:25;96537.06;;;1.04;100.00
39243;BME280;29823;47.404;8.566;2023-01-27T13:28:57;96540.97;;;0.78;100.00
39243;BME280;29823;47.404;8.566;2023-01-27T13:31:37;96537.44;;;1.01;100.00